Saint Louis, Missouri
Traffic Map
Current Weather Conditions
Saint Louis, Missouri
Overcast
Overcast
69°
Feels Like: 69°
Wind Chill: 69° Ceiling: 10000
Heat Index: 69° Visibility: 10mi
Dew Point: 56° Wind: 14mph
Humidity: 63% Direction: 140° (SE)
Pressure: 29.96in Gusts: 22mph
Raw Report DataKCPS 250253Z AUTO 14012G19KT 10SM OVC100 21/13 A2996 RMK AO2 SLP141 T02060133 58003
Traffic Incident Summary
Active as of:
Severity:
Category:
InformationThere was an issue retrieving the traffic information for this location. Please try a different location or try again shortly.
Advertisements
Track Severe Weather on mobile